Dotti J — WCAE — position and weather

sailwx.info

Track history (hours):
 
Tides and Currents Weather Stations Pressure Air Temp Water Temp Dewpoint Dewpoint Depression Visibility Wind Speed Wind Dir Waves Ship Positions

Dotti J

Owner: PRECON MARINE INC, CHESAPEAKE, VA. More information available from US FCC via Universal Licensing System and Coast Guard Vessel Documentation Center.

Last reported at 2018-Feb-20 15:00 UTC. Time now 2018-Feb-20 15:08 UTC.
Position N 36°46' W 076°18'.

Length 20 m; draft 2.9 m.

Type: Tug. MMSI: 366880470.

Date/timePositionNaut miles runAvg speedWind from/ knotsBaromVisibWave heightAir tempDewpointWater temp
2018-Feb-20 15:00N 36°46' W 076°18'0 0.0
2018-Feb-20 14:29N 36°46' W 076°18'0 0.0
2018-Feb-20 14:00N 36°46' W 076°18'0 0.0
2018-Feb-20 13:30N 36°46' W 076°18'0 0.0
2018-Feb-20 13:00N 36°46' W 076°18'0 0.0
2018-Feb-20 12:30N 36°46' W 076°18'0 0.0
2018-Feb-20 12:00N 36°46' W 076°18'0 0.0
2018-Feb-20 11:30N 36°46' W 076°18'0 0.0
2018-Feb-20 11:00N 36°46' W 076°18'0 0.0
2018-Feb-20 10:30N 36°46' W 076°18'0 0.0
2018-Feb-20 10:00N 36°46' W 076°18'0 0.0
2018-Feb-20 09:30N 36°46' W 076°18'0 0.0
2018-Feb-20 09:00N 36°46' W 076°18'0 0.0
2018-Feb-20 08:30N 36°46' W 076°18'0 0.0
2018-Feb-20 08:00N 36°46' W 076°18'0 0.0
2018-Feb-20 07:30N 36°46' W 076°18'0 0.0
2018-Feb-20 07:00N 36°46' W 076°18'0 0.0
2018-Feb-20 06:30N 36°46' W 076°18'0 0.0
2018-Feb-20 06:00N 36°46' W 076°18'0 0.0
2018-Feb-20 05:30N 36°46' W 076°18'0 0.0
2018-Feb-20 05:00N 36°46' W 076°18'0 0.0
2018-Feb-20 04:30N 36°46' W 076°18'0 0.0
2018-Feb-20 04:00N 36°46' W 076°18'0 0.0
2018-Feb-20 03:30N 36°46' W 076°18'0 0.0
2018-Feb-20 03:00N 36°46' W 076°18'0 0.0
2018-Feb-20 02:30N 36°46' W 076°18'0 0.0
2018-Feb-20 02:00N 36°46' W 076°18'0 0.0
2018-Feb-20 01:30N 36°46' W 076°18'0 0.0
2018-Feb-20 01:00N 36°46' W 076°18'0 0.0
2018-Feb-20 00:30N 36°46' W 076°18'0 0.0
2018-Feb-20 00:00N 36°46' W 076°18'0 0.0
2018-Feb-19 23:30N 36°46' W 076°18'0 0.0
2018-Feb-19 23:00N 36°46' W 076°18'0 0.0
2018-Feb-19 22:30N 36°46' W 076°18'0 0.0
2018-Feb-19 22:00N 36°46' W 076°18'0 0.0
2018-Feb-19 21:30N 36°46' W 076°18'0 0.0
2018-Feb-19 21:00N 36°46' W 076°18'0 0.0
2018-Feb-19 20:30N 36°46' W 076°18'0 0.0
2018-Feb-19 20:00N 36°46' W 076°18'0 0.0
2018-Feb-19 19:30N 36°46' W 076°18'0 0.0
2018-Feb-19 19:00N 36°46' W 076°18'0 0.0
2018-Feb-19 18:30N 36°46' W 076°18'0 0.0
2018-Feb-19 18:00N 36°46' W 076°18'0 0.0
2018-Feb-19 17:30N 36°46' W 076°18'0 0.0
2018-Feb-19 17:00N 36°46' W 076°18'0 0.0
2018-Feb-19 16:30N 36°46' W 076°18'0 0.0
2018-Feb-19 16:00N 36°46' W 076°18'0 0.0
2018-Feb-19 15:30N 36°46' W 076°18'0 0.0
2018-Feb-19 15:00N 36°46' W 076°18'0 0.0
2018-Feb-19 14:30N 36°46' W 076°18'0 0.0
2018-Feb-19 14:00N 36°46' W 076°18'0 0.0
2018-Feb-19 13:30N 36°46' W 076°18'0 0.0
2018-Feb-19 13:00N 36°46' W 076°18'0 0.0
2018-Feb-19 12:30N 36°46' W 076°18'1 1.7
2018-Feb-19 12:00N 36°47' W 076°18'1 1.9
2018-Feb-19 11:30N 36°48' W 076°18'3 6.6
2018-Feb-19 11:00N 36°51' W 076°18'4 7.1
2018-Feb-19 10:30N 36°54' W 076°20'4 6.8
2018-Feb-19 09:59N 36°58' W 076°20'3 5.5
2018-Feb-19 09:28N 36°60' W 076°18'3 5.4
2018-Feb-19 08:52N 37°02' W 076°15'3 7.2
2018-Feb-19 08:24N 37°05' W 076°13'3 7.7
2018-Feb-19 07:58N 37°08' W 076°12'4 7.5
2018-Feb-19 07:25N 37°12' W 076°12'3 7.5
2018-Feb-19 06:58N 37°16' W 076°11'88 7.3
2018-Feb-18 18:48N 38°43' W 076°26'3 8.3
2018-Feb-18 18:30N 38°46' W 076°25'3 6.7
2018-Feb-18 18:00N 38°48' W 076°21'1 1.4
2018-Feb-18 17:28N 38°47' W 076°21'93 5.3
2018-Feb-17 23:52N 37°14' W 076°12'2 5.1
2018-Feb-17 23:29N 37°12' W 076°12'3 5.2
2018-Feb-17 22:58N 37°09' W 076°12'3 5.0
2018-Feb-17 22:24N 37°06' W 076°12'2 5.2
2018-Feb-17 21:58N 37°04' W 076°12'3 5.4
2018-Feb-17 21:28N 37°02' W 076°14'3 6.2
2018-Feb-17 20:58N 37°00' W 076°18'3 7.0
2018-Feb-17 20:28N 36°57' W 076°20'3 6.8
2018-Feb-17 19:58N 36°54' W 076°20'3 6.3
2018-Feb-17 19:30N 36°51' W 076°19'3 6.2
2018-Feb-17 19:00N 36°48' W 076°17'2 4.1
2018-Feb-17 18:30N 36°46' W 076°18'1 1.4
2018-Feb-17 18:00N 36°46' W 076°18'0 0.2
2018-Feb-17 17:30N 36°46' W 076°18'0 0.0
2018-Feb-17 17:00N 36°46' W 076°18'0 0.0
2018-Feb-17 16:30N 36°46' W 076°18'0 0.0
2018-Feb-17 16:00N 36°46' W 076°18'0 0.0
2018-Feb-17 15:30N 36°46' W 076°18'0 0.0
2018-Feb-17 15:00N 36°46' W 076°18'0 0.0
2018-Feb-17 14:30N 36°46' W 076°18'0 0.0
2018-Feb-17 14:00N 36°46' W 076°18'0 0.0
2018-Feb-17 13:30N 36°46' W 076°18'0 0.0
2018-Feb-17 13:00N 36°46' W 076°18'0 0.0
2018-Feb-17 12:30N 36°46' W 076°18'0 0.0
2018-Feb-17 12:00N 36°46' W 076°18'0 0.0
2018-Feb-17 11:30N 36°46' W 076°18'0 0.0
2018-Feb-17 11:00N 36°46' W 076°18'0 0.0
2018-Feb-17 10:30N 36°46' W 076°18'0 0.0
2018-Feb-17 10:00N 36°46' W 076°18'0 0.0
2018-Feb-17 09:30N 36°46' W 076°18'0 0.0
2018-Feb-17 09:00N 36°46' W 076°18'0 0.0
2018-Feb-17 08:30N 36°46' W 076°18'0 0.0
2018-Feb-17 08:00N 36°46' W 076°18'0 0.0
2018-Feb-17 07:30N 36°46' W 076°18'0 0.0
2018-Feb-17 07:00N 36°46' W 076°18'0 0.0
2018-Feb-17 06:30N 36°46' W 076°18'0 0.0
2018-Feb-17 06:00N 36°46' W 076°18'0 0.0
2018-Feb-17 05:30N 36°46' W 076°18'0 0.0
2018-Feb-17 05:00N 36°46' W 076°18'0 0.0
2018-Feb-17 04:30N 36°46' W 076°18'0 0.0
2018-Feb-17 04:00N 36°46' W 076°18'0 0.0
2018-Feb-17 03:30N 36°46' W 076°18'0 0.0
2018-Feb-17 03:00N 36°46' W 076°18'0 0.0
2018-Feb-17 02:30N 36°46' W 076°18'0 0.0
2018-Feb-17 02:00N 36°46' W 076°18'0 0.0
2018-Feb-17 01:30N 36°46' W 076°18'0 0.0
2018-Feb-17 01:00N 36°46' W 076°18'0 0.0
2018-Feb-17 00:30N 36°46' W 076°18'0 0.0
2018-Feb-17 00:00N 36°46' W 076°18'0 0.0
2018-Feb-16 23:30N 36°46' W 076°18'0 0.0
2018-Feb-16 23:00N 36°46' W 076°18'0 0.0
2018-Feb-16 22:30N 36°46' W 076°18'0 0.0
2018-Feb-16 22:00N 36°46' W 076°18'0 0.0
2018-Feb-16 21:30N 36°46' W 076°18'0 0.0
2018-Feb-16 21:00N 36°46' W 076°18'0 0.0
2018-Feb-16 20:30N 36°46' W 076°18'0 0.0
2018-Feb-16 20:00N 36°46' W 076°18'0 0.0
2018-Feb-16 19:30N 36°46' W 076°18'0 0.0
2018-Feb-16 19:00N 36°46' W 076°18'0 0.0
2018-Feb-16 18:30N 36°46' W 076°18'0 0.0
2018-Feb-16 18:00N 36°46' W 076°18'0 0.0
2018-Feb-16 17:30N 36°46' W 076°18'0 0.0
2018-Feb-16 17:00N 36°46' W 076°18'0 0.0
2018-Feb-16 16:30N 36°46' W 076°18'0 0.0
2018-Feb-16 16:00N 36°46' W 076°18'0 0.0
2018-Feb-16 15:30N 36°46' W 076°18'0 0.0
2018-Feb-16 15:00N 36°46' W 076°18'0 0.0
2018-Feb-16 14:30N 36°46' W 076°18'0 0.0
2018-Feb-16 14:00N 36°46' W 076°18'0 0.0
2018-Feb-16 13:30N 36°46' W 076°18'0 0.0
2018-Feb-16 13:00N 36°46' W 076°18'0 0.0
2018-Feb-16 12:30N 36°46' W 076°18'0 0.0
2018-Feb-16 12:00N 36°46' W 076°18'0 0.0
2018-Feb-16 11:30N 36°46' W 076°18'0 0.0
2018-Feb-16 11:00N 36°46' W 076°18'0 0.0
2018-Feb-16 10:30N 36°46' W 076°18'0 0.0
2018-Feb-16 10:00N 36°46' W 076°18'0 0.0
2018-Feb-16 09:30N 36°46' W 076°18'0 0.0
2018-Feb-16 09:00N 36°46' W 076°18'0 0.0
2018-Feb-16 08:30N 36°46' W 076°18'0 0.0
2018-Feb-16 08:00N 36°46' W 076°18'0 0.0
2018-Feb-16 07:30N 36°46' W 076°18'0 0.0
2018-Feb-16 07:00N 36°46' W 076°18'0 0.0
2018-Feb-16 06:30N 36°46' W 076°18'0 0.0
2018-Feb-16 06:00N 36°46' W 076°18'0 0.0
2018-Feb-16 05:30N 36°46' W 076°18'0 0.0
2018-Feb-16 05:00N 36°46' W 076°18'0 0.0
2018-Feb-16 04:30N 36°46' W 076°18'0 0.0
2018-Feb-16 04:00N 36°46' W 076°18'0 0.0
2018-Feb-16 03:30N 36°46' W 076°18'0 0.0
2018-Feb-16 03:00N 36°46' W 076°18'0 0.0
2018-Feb-16 02:30N 36°46' W 076°18'0 0.0
2018-Feb-16 02:00N 36°46' W 076°18'0 0.0
2018-Feb-16 01:30N 36°46' W 076°18'0 0.0
2018-Feb-16 01:00N 36°46' W 076°18'0 0.0
2018-Feb-16 00:30N 36°46' W 076°18'0 0.0
2018-Feb-16 00:00N 36°46' W 076°18'0 0.0
2018-Feb-15 23:30N 36°46' W 076°18'0 0.0
2018-Feb-15 23:00N 36°46' W 076°18'0 0.0
2018-Feb-15 22:30N 36°46' W 076°18'0 0.0
2018-Feb-15 22:00N 36°46' W 076°18'0 0.0
2018-Feb-15 21:30N 36°46' W 076°18'0 0.0
2018-Feb-15 21:00N 36°46' W 076°18'0 0.0
2018-Feb-15 20:30N 36°46' W 076°18'0 0.2
2018-Feb-15 20:00N 36°46' W 076°18'0 0.1
2018-Feb-15 19:31N 36°46' W 076°18'2 4.1
2018-Feb-15 19:00N 36°48' W 076°18'0 0.1
2018-Feb-15 18:30N 36°48' W 076°18'0 0.0
2018-Feb-15 18:00N 36°48' W 076°18'2 4.0
2018-Feb-15 17:30N 36°46' W 076°18'0 0.0
2018-Feb-15 17:00N 36°46' W 076°18'0 0.0
2018-Feb-15 16:30N 36°46' W 076°18'0 0.0
2018-Feb-15 16:00N 36°46' W 076°18'0 0.0
2018-Feb-15 15:30N 36°46' W 076°18'0 0.0
2018-Feb-15 15:00N 36°46' W 076°18'0 0.0
2018-Feb-15 14:30N 36°46' W 076°18'0 0.0
2018-Feb-15 14:00N 36°46' W 076°18'0 0.0
2018-Feb-15 13:30N 36°46' W 076°18'0 0.0
2018-Feb-15 13:00N 36°46' W 076°18'0 0.0
2018-Feb-15 12:30N 36°46' W 076°18'0 0.0
2018-Feb-15 12:00N 36°46' W 076°18'0 0.0
2018-Feb-15 11:30N 36°46' W 076°18'0 0.0
2018-Feb-15 11:00N 36°46' W 076°18'0 0.0
2018-Feb-15 10:30N 36°46' W 076°18'0 0.0
2018-Feb-15 10:00N 36°46' W 076°18'0 0.0
2018-Feb-15 09:30N 36°46' W 076°18'0 0.0
2018-Feb-15 09:00N 36°46' W 076°18'0 0.0
2018-Feb-15 08:30N 36°46' W 076°18'0 0.0
2018-Feb-15 08:00N 36°46' W 076°18'0 0.0
2018-Feb-15 07:30N 36°46' W 076°18'0 0.0
2018-Feb-15 07:00N 36°46' W 076°18'0 0.0
2018-Feb-15 06:30N 36°46' W 076°18'0 0.0
2018-Feb-15 06:00N 36°46' W 076°18'0 0.0
2018-Feb-15 05:30N 36°46' W 076°18'0 0.0
2018-Feb-15 05:00N 36°46' W 076°18'0 0.0
2018-Feb-15 04:30N 36°46' W 076°18'0 0.0
2018-Feb-15 04:00N 36°46' W 076°18'0 0.0
2018-Feb-15 03:30N 36°46' W 076°18'0 0.0
2018-Feb-15 03:00N 36°46' W 076°18'0 0.0
2018-Feb-15 02:30N 36°46' W 076°18'0 0.0
2018-Feb-15 02:00N 36°46' W 076°18'0 0.0
2018-Feb-15 01:30N 36°46' W 076°18'0 0.0
2018-Feb-15 01:00N 36°46' W 076°18'0 0.0
2018-Feb-15 00:30N 36°46' W 076°18'0 0.0
2018-Feb-15 00:00N 36°46' W 076°18'0 0.0
2018-Feb-14 23:30N 36°46' W 076°18'0 0.0
2018-Feb-14 23:00N 36°46' W 076°18'0 0.0
2018-Feb-14 22:30N 36°46' W 076°18'0 0.0
2018-Feb-14 22:00N 36°46' W 076°18'0 0.0
2018-Feb-14 21:30N 36°46' W 076°18'0 0.0
2018-Feb-14 21:00N 36°46' W 076°18'0 0.0
2018-Feb-14 20:30N 36°46' W 076°18'0 0.0
2018-Feb-14 20:00N 36°46' W 076°18'0 0.0
2018-Feb-14 19:30N 36°46' W 076°18'0 0.0
2018-Feb-14 19:00N 36°46' W 076°18'0 0.0
2018-Feb-14 18:30N 36°46' W 076°18'0 0.0
2018-Feb-14 18:00N 36°46' W 076°18'0 0.0
2018-Feb-14 17:30N 36°46' W 076°18'0 0.0
2018-Feb-14 17:00N 36°46' W 076°18'0 0.0
2018-Feb-14 16:30N 36°46' W 076°18'0 0.0
2018-Feb-14 16:00N 36°46' W 076°18'0 0.0
2018-Feb-14 15:30N 36°46' W 076°18'0 0.0
2018-Feb-14 15:00N 36°46' W 076°18'0 0.0
2018-Feb-14 14:30N 36°46' W 076°18'0 0.0
2018-Feb-14 14:00N 36°46' W 076°18'0 0.0
2018-Feb-14 13:30N 36°46' W 076°18'0 0.0
2018-Feb-14 13:00N 36°46' W 076°18'0 0.0
2018-Feb-14 12:30N 36°46' W 076°18'0 0.0
2018-Feb-14 12:00N 36°46' W 076°18'0 0.0
2018-Feb-14 11:30N 36°46' W 076°18'0 0.0
2018-Feb-14 11:00N 36°46' W 076°18'0 0.0
2018-Feb-14 10:30N 36°46' W 076°18'0 0.0
2018-Feb-14 10:00N 36°46' W 076°18'0 0.0
2018-Feb-14 09:30N 36°46' W 076°18'0 0.0
2018-Feb-14 09:00N 36°46' W 076°18'0 0.0
2018-Feb-14 08:30N 36°46' W 076°18'0 0.0
2018-Feb-14 08:00N 36°46' W 076°18'0 0.0
2018-Feb-14 07:30N 36°46' W 076°18'0 0.0
2018-Feb-14 07:00N 36°46' W 076°18'0 0.0
2018-Feb-14 06:30N 36°46' W 076°18'0 0.0
2018-Feb-14 06:00N 36°46' W 076°18'0 0.0
2018-Feb-14 05:30N 36°46' W 076°18'0 0.0
2018-Feb-14 05:00N 36°46' W 076°18'0 0.0
2018-Feb-14 04:30N 36°46' W 076°18'0 0.0
2018-Feb-14 04:00N 36°46' W 076°18'0 0.0
2018-Feb-14 03:30N 36°46' W 076°18'0 0.0
2018-Feb-14 03:00N 36°46' W 076°18'0 0.0
2018-Feb-14 02:30N 36°46' W 076°18'0 0.0
2018-Feb-14 02:00N 36°46' W 076°18'0 0.0
2018-Feb-14 01:30N 36°46' W 076°18'0 0.0
2018-Feb-14 01:00N 36°46' W 076°18'0 0.0
2018-Feb-14 00:30N 36°46' W 076°18'0 0.0
2018-Feb-14 00:00N 36°46' W 076°18'0 0.0
2018-Feb-13 23:30N 36°46' W 076°18'0 0.0
2018-Feb-13 23:00N 36°46' W 076°18'0 0.0
2018-Feb-13 22:30N 36°46' W 076°18'0 0.0
2018-Feb-13 22:00N 36°46' W 076°18'0 0.0
2018-Feb-13 21:30N 36°46' W 076°18'0 0.0
2018-Feb-13 21:00N 36°46' W 076°18'0 0.0
2018-Feb-13 20:30N 36°46' W 076°18'0 0.0
2018-Feb-13 20:00N 36°46' W 076°18'0 0.0
2018-Feb-13 19:30N 36°46' W 076°18'0 0.0
2018-Feb-13 19:00N 36°46' W 076°18'0 0.0
2018-Feb-13 18:30N 36°46' W 076°18'0 0.0
2018-Feb-13 18:00N 36°46' W 076°18'0 0.0
2018-Feb-13 17:30N 36°46' W 076°18'0 0.0
2018-Feb-13 17:00N 36°46' W 076°18'0 0.0
2018-Feb-13 16:30N 36°46' W 076°18'0 0.0
2018-Feb-13 16:00N 36°46' W 076°18'0 0.0
2018-Feb-13 15:30N 36°46' W 076°18'0 0.0
2018-Feb-13 15:00N 36°46' W 076°18'0 0.0
2018-Feb-13 14:30N 36°46' W 076°18'0 0.0
2018-Feb-13 14:00N 36°46' W 076°18'0 0.0
2018-Feb-13 13:30N 36°46' W 076°18'0 0.0
2018-Feb-13 13:00N 36°46' W 076°18'0 0.0
2018-Feb-13 12:30N 36°46' W 076°18'0 0.0
2018-Feb-13 12:00N 36°46' W 076°18'0 0.0
2018-Feb-13 11:30N 36°46' W 076°18'0 0.0
2018-Feb-13 11:00N 36°46' W 076°18'0 0.0
2018-Feb-13 10:30N 36°46' W 076°18'0 0.0
2018-Feb-13 10:00N 36°46' W 076°18'0 0.0
2018-Feb-13 09:30N 36°46' W 076°18'0 0.0
2018-Feb-13 09:00N 36°46' W 076°18'0 0.0
2018-Feb-13 08:30N 36°46' W 076°18'0 0.0
2018-Feb-13 08:00N 36°46' W 076°18'0 0.0
2018-Feb-13 07:30N 36°46' W 076°18'0 0.0
2018-Feb-13 07:00N 36°46' W 076°18'0 0.0
2018-Feb-13 06:30N 36°46' W 076°18'0 0.0
2018-Feb-13 06:00N 36°46' W 076°18'0 0.0
2018-Feb-13 05:30N 36°46' W 076°18'0 0.0
2018-Feb-13 05:00N 36°46' W 076°18'0 0.0
2018-Feb-13 04:30N 36°46' W 076°18'0 0.0
2018-Feb-13 04:00N 36°46' W 076°18'0 0.0
2018-Feb-13 03:30N 36°46' W 076°18'0 0.0
2018-Feb-13 03:00N 36°46' W 076°18'0 0.0
2018-Feb-13 02:30N 36°46' W 076°18'0 0.0
2018-Feb-13 02:00N 36°46' W 076°18'0 0.0
2018-Feb-13 01:30N 36°46' W 076°18'0 0.0
2018-Feb-13 01:00N 36°46' W 076°18'0 0.0
2018-Feb-13 00:30N 36°46' W 076°18'0 0.0
2018-Feb-13 00:00N 36°46' W 076°18'0 0.0
2018-Feb-12 23:30N 36°46' W 076°18'0 0.0
2018-Feb-12 23:00N 36°46' W 076°18'0 0.0
2018-Feb-12 22:30N 36°46' W 076°18'0 0.0
2018-Feb-12 22:00N 36°46' W 076°18'0 0.0
2018-Feb-12 21:30N 36°46' W 076°18'0 0.0
2018-Feb-12 21:00N 36°46' W 076°18'0 0.0
2018-Feb-12 20:30N 36°46' W 076°18'0 0.0
2018-Feb-12 20:00N 36°46' W 076°18'0 0.0
2018-Feb-12 19:30N 36°46' W 076°18'0 0.0
2018-Feb-12 19:00N 36°46' W 076°18'0 0.0
2018-Feb-12 18:30N 36°46' W 076°18'0 0.0
2018-Feb-12 18:00N 36°46' W 076°18'0 0.0
2018-Feb-12 17:30N 36°46' W 076°18'0 0.0
2018-Feb-12 17:00N 36°46' W 076°18'0 0.0
2018-Feb-12 16:30N 36°46' W 076°18'0 0.0
2018-Feb-12 16:00N 36°46' W 076°18'0 0.0
2018-Feb-12 15:30N 36°46' W 076°18'0 0.0
2018-Feb-12 15:00N 36°46' W 076°18'0 0.0
2018-Feb-12 14:30N 36°46' W 076°18'0 0.0
2018-Feb-12 14:00N 36°46' W 076°18'0 0.0
2018-Feb-12 13:30N 36°46' W 076°18'0 0.0
2018-Feb-12 13:00N 36°46' W 076°18'0 0.0
2018-Feb-12 12:30N 36°46' W 076°18'0 0.0
2018-Feb-12 12:00N 36°46' W 076°18'0 0.0
2018-Feb-12 11:30N 36°46' W 076°18'0 0.0
2018-Feb-12 11:00N 36°46' W 076°18'0 0.0
2018-Feb-12 10:30N 36°46' W 076°18'0 0.0
2018-Feb-12 10:00N 36°46' W 076°18'0 0.0
2018-Feb-12 09:30N 36°46' W 076°18'0 0.0
2018-Feb-12 09:00N 36°46' W 076°18'0 0.0
2018-Feb-12 08:30N 36°46' W 076°18'0 0.0
2018-Feb-12 08:00N 36°46' W 076°18'0 0.0
2018-Feb-12 07:30N 36°46' W 076°18'0 0.0
2018-Feb-12 07:00N 36°46' W 076°18'0 0.0
2018-Feb-12 06:30N 36°46' W 076°18'0 0.0
2018-Feb-12 06:00N 36°46' W 076°18'0 0.0
2018-Feb-12 05:30N 36°46' W 076°18'0 0.0
2018-Feb-12 05:00N 36°46' W 076°18'0 0.0
2018-Feb-12 04:30N 36°46' W 076°18'0 0.0
2018-Feb-12 04:00N 36°46' W 076°18'0 0.0
2018-Feb-12 03:30N 36°46' W 076°18'0 0.0
2018-Feb-12 03:00N 36°46' W 076°18'0 0.0
2018-Feb-12 02:30N 36°46' W 076°18'0 0.0
2018-Feb-12 02:00N 36°46' W 076°18'0 0.0
2018-Feb-12 01:30N 36°46' W 076°18'0 0.0
2018-Feb-12 01:00N 36°46' W 076°18'0 0.0
2018-Feb-12 00:30N 36°46' W 076°18'0 0.0
2018-Feb-12 00:00N 36°46' W 076°18'0 0.0
2018-Feb-11 23:30N 36°46' W 076°18'0 0.0
2018-Feb-11 23:00N 36°46' W 076°18'0 0.0
2018-Feb-11 22:30N 36°46' W 076°18'0 0.0
2018-Feb-11 22:00N 36°46' W 076°18'0 0.0
2018-Feb-11 21:30N 36°46' W 076°18'0 0.0
2018-Feb-11 21:00N 36°46' W 076°18'0 0.0
2018-Feb-11 20:30N 36°46' W 076°18'0 0.0
2018-Feb-11 20:00N 36°46' W 076°18'0 0.0
2018-Feb-11 19:30N 36°46' W 076°18'0 0.0
2018-Feb-11 19:00N 36°46' W 076°18'0 0.0
2018-Feb-11 18:30N 36°46' W 076°18'0 0.0
2018-Feb-11 18:00N 36°46' W 076°18'0 0.0
2018-Feb-11 17:30N 36°46' W 076°18'0 0.0
2018-Feb-11 17:00N 36°46' W 076°18'0 0.0
2018-Feb-11 16:30N 36°46' W 076°18'0 0.0
2018-Feb-11 16:00N 36°46' W 076°18'0 0.0
2018-Feb-11 15:30N 36°46' W 076°18'0 0.0
2018-Feb-11 15:00N 36°46' W 076°18'0 0.0
2018-Feb-11 14:30N 36°46' W 076°18'0 0.0
2018-Feb-11 14:00N 36°46' W 076°18'0 0.0
2018-Feb-11 13:30N 36°46' W 076°18'0 0.0
2018-Feb-11 13:00N 36°46' W 076°18'0 0.0
2018-Feb-11 12:30N 36°46' W 076°18'0 0.0
2018-Feb-11 12:00N 36°46' W 076°18'0 0.0
2018-Feb-11 11:30N 36°46' W 076°18'0 0.0
2018-Feb-11 11:00N 36°46' W 076°18'0 0.0
2018-Feb-11 10:30N 36°46' W 076°18'0 0.0
2018-Feb-11 10:00N 36°46' W 076°18'0 0.0
2018-Feb-11 09:30N 36°46' W 076°18'0 0.0
2018-Feb-11 09:00N 36°46' W 076°18'0 0.0
2018-Feb-11 08:30N 36°46' W 076°18'0 0.0
2018-Feb-11 08:00N 36°46' W 076°18'0 0.0
2018-Feb-11 07:30N 36°46' W 076°18'0 0.0
2018-Feb-11 07:00N 36°46' W 076°18'0 0.0
2018-Feb-11 06:30N 36°46' W 076°18'0 0.0
2018-Feb-11 06:00N 36°46' W 076°18'0 0.0
2018-Feb-11 05:30N 36°46' W 076°18'0 0.0
2018-Feb-11 05:00N 36°46' W 076°18'0 0.0
2018-Feb-11 04:30N 36°46' W 076°18'0 0.0
2018-Feb-11 04:00N 36°46' W 076°18'0 0.0
2018-Feb-11 03:30N 36°46' W 076°18'0 0.0
2018-Feb-11 03:00N 36°46' W 076°18'0 0.0
2018-Feb-11 02:30N 36°46' W 076°18'0 0.0
2018-Feb-11 02:00N 36°46' W 076°18'0 0.0
2018-Feb-11 01:30N 36°46' W 076°18'0 0.0
2018-Feb-11 01:00N 36°46' W 076°18'0 0.0
2018-Feb-11 00:30N 36°46' W 076°18'0 0.0
2018-Feb-11 00:00N 36°46' W 076°18'0 0.0
2018-Feb-10 23:30N 36°46' W 076°18'0 0.0
2018-Feb-10 23:00N 36°46' W 076°18'0 0.0
2018-Feb-10 22:30N 36°46' W 076°18'0 0.0
2018-Feb-10 22:00N 36°46' W 076°18'0 0.0
2018-Feb-10 21:30N 36°46' W 076°18'0 0.0
2018-Feb-10 21:00N 36°46' W 076°18'0 0.0
2018-Feb-10 20:30N 36°46' W 076°18'0 0.0
2018-Feb-10 20:00N 36°46' W 076°18'0 0.0
2018-Feb-10 19:30N 36°46' W 076°18'0 0.0
2018-Feb-10 19:00N 36°46' W 076°18'0 0.0
2018-Feb-10 18:30N 36°46' W 076°18'0 0.0
2018-Feb-10 18:00N 36°46' W 076°18'0 0.0
2018-Feb-10 17:30N 36°46' W 076°18'0 0.0
2018-Feb-10 17:00N 36°46' W 076°18'0 0.0
2018-Feb-10 16:30N 36°46' W 076°18'0 0.0
2018-Feb-10 16:00N 36°46' W 076°18'0 0.0
2018-Feb-10 15:30N 36°46' W 076°18'0 0.0
2018-Feb-10 15:00N 36°46' W 076°18'  
Track history (hours):
 
Tides and Currents Weather Stations Pressure Air Temp Water Temp Dewpoint Dewpoint Depression Visibility Wind Speed Wind Dir Waves Ship Positions

Dotti J

Owner: PRECON MARINE INC, CHESAPEAKE, VA. More information available from US FCC via Universal Licensing System and Coast Guard Vessel Documentation Center.

Last reported at 2018-Feb-20 15:00 UTC. Time now 2018-Feb-20 15:08 UTC.
Position N 36°46' W 076°18'.

Length 20 m; draft 2.9 m.

Type: Tug. MMSI: 366880470.

Date/timePositionNaut miles runAvg speedWind from/ knotsBaromVisibWave heightAir tempDewpointWater temp
2018-Feb-20 15:00N 36°46' W 076°18'0 0.0
2018-Feb-20 14:29N 36°46' W 076°18'0 0.0
2018-Feb-20 14:00N 36°46' W 076°18'0 0.0
2018-Feb-20 13:30N 36°46' W 076°18'0 0.0
2018-Feb-20 13:00N 36°46' W 076°18'0 0.0
2018-Feb-20 12:30N 36°46' W 076°18'0 0.0
2018-Feb-20 12:00N 36°46' W 076°18'0 0.0
2018-Feb-20 11:30N 36°46' W 076°18'0 0.0
2018-Feb-20 11:00N 36°46' W 076°18'0 0.0
2018-Feb-20 10:30N 36°46' W 076°18'0 0.0
2018-Feb-20 10:00N 36°46' W 076°18'0 0.0
2018-Feb-20 09:30N 36°46' W 076°18'0 0.0
2018-Feb-20 09:00N 36°46' W 076°18'0 0.0
2018-Feb-20 08:30N 36°46' W 076°18'0 0.0
2018-Feb-20 08:00N 36°46' W 076°18'0 0.0
2018-Feb-20 07:30N 36°46' W 076°18'0 0.0
2018-Feb-20 07:00N 36°46' W 076°18'0 0.0
2018-Feb-20 06:30N 36°46' W 076°18'0 0.0
2018-Feb-20 06:00N 36°46' W 076°18'0 0.0
2018-Feb-20 05:30N 36°46' W 076°18'0 0.0
2018-Feb-20 05:00N 36°46' W 076°18'0 0.0
2018-Feb-20 04:30N 36°46' W 076°18'0 0.0
2018-Feb-20 04:00N 36°46' W 076°18'0 0.0
2018-Feb-20 03:30N 36°46' W 076°18'0 0.0
2018-Feb-20 03:00N 36°46' W 076°18'0 0.0
2018-Feb-20 02:30N 36°46' W 076°18'0 0.0
2018-Feb-20 02:00N 36°46' W 076°18'0 0.0
2018-Feb-20 01:30N 36°46' W 076°18'0 0.0
2018-Feb-20 01:00N 36°46' W 076°18'0 0.0
2018-Feb-20 00:30N 36°46' W 076°18'0 0.0
2018-Feb-20 00:00N 36°46' W 076°18'0 0.0
2018-Feb-19 23:30N 36°46' W 076°18'0 0.0
2018-Feb-19 23:00N 36°46' W 076°18'0 0.0
2018-Feb-19 22:30N 36°46' W 076°18'0 0.0
2018-Feb-19 22:00N 36°46' W 076°18'0 0.0
2018-Feb-19 21:30N 36°46' W 076°18'0 0.0
2018-Feb-19 21:00N 36°46' W 076°18'0 0.0
2018-Feb-19 20:30N 36°46' W 076°18'0 0.0
2018-Feb-19 20:00N 36°46' W 076°18'0 0.0
2018-Feb-19 19:30N 36°46' W 076°18'0 0.0
2018-Feb-19 19:00N 36°46' W 076°18'0 0.0
2018-Feb-19 18:30N 36°46' W 076°18'0 0.0
2018-Feb-19 18:00N 36°46' W 076°18'0 0.0
2018-Feb-19 17:30N 36°46' W 076°18'0 0.0
2018-Feb-19 17:00N 36°46' W 076°18'0 0.0
2018-Feb-19 16:30N 36°46' W 076°18'0 0.0
2018-Feb-19 16:00N 36°46' W 076°18'0 0.0
2018-Feb-19 15:30N 36°46' W 076°18'0 0.0
2018-Feb-19 15:00N 36°46' W 076°18'0 0.0
2018-Feb-19 14:30N 36°46' W 076°18'0 0.0
2018-Feb-19 14:00N 36°46' W 076°18'0 0.0
2018-Feb-19 13:30N 36°46' W 076°18'0 0.0
2018-Feb-19 13:00N 36°46' W 076°18'0 0.0
2018-Feb-19 12:30N 36°46' W 076°18'1 1.7
2018-Feb-19 12:00N 36°47' W 076°18'1 1.9
2018-Feb-19 11:30N 36°48' W 076°18'3 6.6
2018-Feb-19 11:00N 36°51' W 076°18'4 7.1
2018-Feb-19 10:30N 36°54' W 076°20'4 6.8
2018-Feb-19 09:59N 36°58' W 076°20'3 5.5
2018-Feb-19 09:28N 36°60' W 076°18'3 5.4
2018-Feb-19 08:52N 37°02' W 076°15'3 7.2
2018-Feb-19 08:24N 37°05' W 076°13'3 7.7
2018-Feb-19 07:58N 37°08' W 076°12'4 7.5
2018-Feb-19 07:25N 37°12' W 076°12'3 7.5
2018-Feb-19 06:58N 37°16' W 076°11'88 7.3
2018-Feb-18 18:48N 38°43' W 076°26'3 8.3
2018-Feb-18 18:30N 38°46' W 076°25'3 6.7
2018-Feb-18 18:00N 38°48' W 076°21'1 1.4
2018-Feb-18 17:28N 38°47' W 076°21'93 5.3
2018-Feb-17 23:52N 37°14' W 076°12'2 5.1
2018-Feb-17 23:29N 37°12' W 076°12'3 5.2
2018-Feb-17 22:58N 37°09' W 076°12'3 5.0
2018-Feb-17 22:24N 37°06' W 076°12'2 5.2
2018-Feb-17 21:58N 37°04' W 076°12'3 5.4
2018-Feb-17 21:28N 37°02' W 076°14'3 6.2
2018-Feb-17 20:58N 37°00' W 076°18'3 7.0
2018-Feb-17 20:28N 36°57' W 076°20'3 6.8
2018-Feb-17 19:58N 36°54' W 076°20'3 6.3
2018-Feb-17 19:30N 36°51' W 076°19'3 6.2
2018-Feb-17 19:00N 36°48' W 076°17'2 4.1
2018-Feb-17 18:30N 36°46' W 076°18'1 1.4
2018-Feb-17 18:00N 36°46' W 076°18'0 0.2
2018-Feb-17 17:30N 36°46' W 076°18'0 0.0
2018-Feb-17 17:00N 36°46' W 076°18'0 0.0
2018-Feb-17 16:30N 36°46' W 076°18'0 0.0
2018-Feb-17 16:00N 36°46' W 076°18'0 0.0
2018-Feb-17 15:30N 36°46' W 076°18'0 0.0
2018-Feb-17 15:00N 36°46' W 076°18'0 0.0
2018-Feb-17 14:30N 36°46' W 076°18'0 0.0
2018-Feb-17 14:00N 36°46' W 076°18'0 0.0
2018-Feb-17 13:30N 36°46' W 076°18'0 0.0
2018-Feb-17 13:00N 36°46' W 076°18'0 0.0
2018-Feb-17 12:30N 36°46' W 076°18'0 0.0
2018-Feb-17 12:00N 36°46' W 076°18'0 0.0
2018-Feb-17 11:30N 36°46' W 076°18'0 0.0
2018-Feb-17 11:00N 36°46' W 076°18'0 0.0
2018-Feb-17 10:30N 36°46' W 076°18'0 0.0
2018-Feb-17 10:00N 36°46' W 076°18'0 0.0
2018-Feb-17 09:30N 36°46' W 076°18'0 0.0
2018-Feb-17 09:00N 36°46' W 076°18'0 0.0
2018-Feb-17 08:30N 36°46' W 076°18'0 0.0
2018-Feb-17 08:00N 36°46' W 076°18'0 0.0
2018-Feb-17 07:30N 36°46' W 076°18'0 0.0
2018-Feb-17 07:00N 36°46' W 076°18'0 0.0
2018-Feb-17 06:30N 36°46' W 076°18'0 0.0
2018-Feb-17 06:00N 36°46' W 076°18'0 0.0
2018-Feb-17 05:30N 36°46' W 076°18'0 0.0
2018-Feb-17 05:00N 36°46' W 076°18'0 0.0
2018-Feb-17 04:30N 36°46' W 076°18'0 0.0
2018-Feb-17 04:00N 36°46' W 076°18'0 0.0
2018-Feb-17 03:30N 36°46' W 076°18'0 0.0
2018-Feb-17 03:00N 36°46' W 076°18'0 0.0
2018-Feb-17 02:30N 36°46' W 076°18'0 0.0
2018-Feb-17 02:00N 36°46' W 076°18'0 0.0
2018-Feb-17 01:30N 36°46' W 076°18'0 0.0
2018-Feb-17 01:00N 36°46' W 076°18'0 0.0
2018-Feb-17 00:30N 36°46' W 076°18'0 0.0
2018-Feb-17 00:00N 36°46' W 076°18'0 0.0
2018-Feb-16 23:30N 36°46' W 076°18'0 0.0
2018-Feb-16 23:00N 36°46' W 076°18'0 0.0
2018-Feb-16 22:30N 36°46' W 076°18'0 0.0
2018-Feb-16 22:00N 36°46' W 076°18'0 0.0
2018-Feb-16 21:30N 36°46' W 076°18'0 0.0
2018-Feb-16 21:00N 36°46' W 076°18'0 0.0
2018-Feb-16 20:30N 36°46' W 076°18'0 0.0
2018-Feb-16 20:00N 36°46' W 076°18'0 0.0
2018-Feb-16 19:30N 36°46' W 076°18'0 0.0
2018-Feb-16 19:00N 36°46' W 076°18'0 0.0
2018-Feb-16 18:30N 36°46' W 076°18'0 0.0
2018-Feb-16 18:00N 36°46' W 076°18'0 0.0
2018-Feb-16 17:30N 36°46' W 076°18'0 0.0
2018-Feb-16 17:00N 36°46' W 076°18'0 0.0
2018-Feb-16 16:30N 36°46' W 076°18'0 0.0
2018-Feb-16 16:00N 36°46' W 076°18'0 0.0
2018-Feb-16 15:30N 36°46' W 076°18'0 0.0
2018-Feb-16 15:00N 36°46' W 076°18'0 0.0
2018-Feb-16 14:30N 36°46' W 076°18'0 0.0
2018-Feb-16 14:00N 36°46' W 076°18'0 0.0
2018-Feb-16 13:30N 36°46' W 076°18'0 0.0
2018-Feb-16 13:00N 36°46' W 076°18'0 0.0
2018-Feb-16 12:30N 36°46' W 076°18'0 0.0
2018-Feb-16 12:00N 36°46' W 076°18'0 0.0
2018-Feb-16 11:30N 36°46' W 076°18'0 0.0
2018-Feb-16 11:00N 36°46' W 076°18'0 0.0
2018-Feb-16 10:30N 36°46' W 076°18'0 0.0
2018-Feb-16 10:00N 36°46' W 076°18'0 0.0
2018-Feb-16 09:30N 36°46' W 076°18'0 0.0
2018-Feb-16 09:00N 36°46' W 076°18'0 0.0
2018-Feb-16 08:30N 36°46' W 076°18'0 0.0
2018-Feb-16 08:00N 36°46' W 076°18'0 0.0
2018-Feb-16 07:30N 36°46' W 076°18'0 0.0
2018-Feb-16 07:00N 36°46' W 076°18'0 0.0
2018-Feb-16 06:30N 36°46' W 076°18'0 0.0
2018-Feb-16 06:00N 36°46' W 076°18'0 0.0
2018-Feb-16 05:30N 36°46' W 076°18'0 0.0
2018-Feb-16 05:00N 36°46' W 076°18'0 0.0
2018-Feb-16 04:30N 36°46' W 076°18'0 0.0
2018-Feb-16 04:00N 36°46' W 076°18'0 0.0
2018-Feb-16 03:30N 36°46' W 076°18'0 0.0
2018-Feb-16 03:00N 36°46' W 076°18'0 0.0
2018-Feb-16 02:30N 36°46' W 076°18'0 0.0
2018-Feb-16 02:00N 36°46' W 076°18'0 0.0
2018-Feb-16 01:30N 36°46' W 076°18'0 0.0
2018-Feb-16 01:00N 36°46' W 076°18'0 0.0
2018-Feb-16 00:30N 36°46' W 076°18'0 0.0
2018-Feb-16 00:00N 36°46' W 076°18'0 0.0
2018-Feb-15 23:30N 36°46' W 076°18'0 0.0
2018-Feb-15 23:00N 36°46' W 076°18'0 0.0
2018-Feb-15 22:30N 36°46' W 076°18'0 0.0
2018-Feb-15 22:00N 36°46' W 076°18'0 0.0
2018-Feb-15 21:30N 36°46' W 076°18'0 0.0
2018-Feb-15 21:00N 36°46' W 076°18'0 0.0
2018-Feb-15 20:30N 36°46' W 076°18'0 0.2
2018-Feb-15 20:00N 36°46' W 076°18'0 0.1
2018-Feb-15 19:31N 36°46' W 076°18'2 4.1
2018-Feb-15 19:00N 36°48' W 076°18'0 0.1
2018-Feb-15 18:30N 36°48' W 076°18'0 0.0
2018-Feb-15 18:00N 36°48' W 076°18'2 4.0
2018-Feb-15 17:30N 36°46' W 076°18'0 0.0
2018-Feb-15 17:00N 36°46' W 076°18'0 0.0
2018-Feb-15 16:30N 36°46' W 076°18'0 0.0
2018-Feb-15 16:00N 36°46' W 076°18'0 0.0
2018-Feb-15 15:30N 36°46' W 076°18'0 0.0
2018-Feb-15 15:00N 36°46' W 076°18'0 0.0
2018-Feb-15 14:30N 36°46' W 076°18'0 0.0
2018-Feb-15 14:00N 36°46' W 076°18'0 0.0
2018-Feb-15 13:30N 36°46' W 076°18'0 0.0
2018-Feb-15 13:00N 36°46' W 076°18'0 0.0
2018-Feb-15 12:30N 36°46' W 076°18'0 0.0
2018-Feb-15 12:00N 36°46' W 076°18'0 0.0
2018-Feb-15 11:30N 36°46' W 076°18'0 0.0
2018-Feb-15 11:00N 36°46' W 076°18'0 0.0
2018-Feb-15 10:30N 36°46' W 076°18'0 0.0
2018-Feb-15 10:00N 36°46' W 076°18'0 0.0
2018-Feb-15 09:30N 36°46' W 076°18'0 0.0
2018-Feb-15 09:00N 36°46' W 076°18'0 0.0
2018-Feb-15 08:30N 36°46' W 076°18'0 0.0
2018-Feb-15 08:00N 36°46' W 076°18'0 0.0
2018-Feb-15 07:30N 36°46' W 076°18'0 0.0
2018-Feb-15 07:00N 36°46' W 076°18'0 0.0
2018-Feb-15 06:30N 36°46' W 076°18'0 0.0
2018-Feb-15 06:00N 36°46' W 076°18'0 0.0
2018-Feb-15 05:30N 36°46' W 076°18'0 0.0
2018-Feb-15 05:00N 36°46' W 076°18'0 0.0
2018-Feb-15 04:30N 36°46' W 076°18'0 0.0
2018-Feb-15 04:00N 36°46' W 076°18'0 0.0
2018-Feb-15 03:30N 36°46' W 076°18'0 0.0
2018-Feb-15 03:00N 36°46' W 076°18'0 0.0
2018-Feb-15 02:30N 36°46' W 076°18'0 0.0
2018-Feb-15 02:00N 36°46' W 076°18'0 0.0
2018-Feb-15 01:30N 36°46' W 076°18'0 0.0
2018-Feb-15 01:00N 36°46' W 076°18'0 0.0
2018-Feb-15 00:30N 36°46' W 076°18'0 0.0
2018-Feb-15 00:00N 36°46' W 076°18'0 0.0
2018-Feb-14 23:30N 36°46' W 076°18'0 0.0
2018-Feb-14 23:00N 36°46' W 076°18'0 0.0
2018-Feb-14 22:30N 36°46' W 076°18'0 0.0
2018-Feb-14 22:00N 36°46' W 076°18'0 0.0
2018-Feb-14 21:30N 36°46' W 076°18'0 0.0
2018-Feb-14 21:00N 36°46' W 076°18'0 0.0
2018-Feb-14 20:30N 36°46' W 076°18'0 0.0
2018-Feb-14 20:00N 36°46' W 076°18'0 0.0
2018-Feb-14 19:30N 36°46' W 076°18'0 0.0
2018-Feb-14 19:00N 36°46' W 076°18'0 0.0
2018-Feb-14 18:30N 36°46' W 076°18'0 0.0
2018-Feb-14 18:00N 36°46' W 076°18'0 0.0
2018-Feb-14 17:30N 36°46' W 076°18'0 0.0
2018-Feb-14 17:00N 36°46' W 076°18'0 0.0
2018-Feb-14 16:30N 36°46' W 076°18'0 0.0
2018-Feb-14 16:00N 36°46' W 076°18'0 0.0
2018-Feb-14 15:30N 36°46' W 076°18'0 0.0
2018-Feb-14 15:00N 36°46' W 076°18'0 0.0
2018-Feb-14 14:30N 36°46' W 076°18'0 0.0
2018-Feb-14 14:00N 36°46' W 076°18'0 0.0
2018-Feb-14 13:30N 36°46' W 076°18'0 0.0
2018-Feb-14 13:00N 36°46' W 076°18'0 0.0
2018-Feb-14 12:30N 36°46' W 076°18'0 0.0
2018-Feb-14 12:00N 36°46' W 076°18'0 0.0
2018-Feb-14 11:30N 36°46' W 076°18'0 0.0
2018-Feb-14 11:00N 36°46' W 076°18'0 0.0
2018-Feb-14 10:30N 36°46' W 076°18'0 0.0
2018-Feb-14 10:00N 36°46' W 076°18'0 0.0
2018-Feb-14 09:30N 36°46' W 076°18'0 0.0
2018-Feb-14 09:00N 36°46' W 076°18'0 0.0
2018-Feb-14 08:30N 36°46' W 076°18'0 0.0
2018-Feb-14 08:00N 36°46' W 076°18'0 0.0
2018-Feb-14 07:30N 36°46' W 076°18'0 0.0
2018-Feb-14 07:00N 36°46' W 076°18'0 0.0
2018-Feb-14 06:30N 36°46' W 076°18'0 0.0
2018-Feb-14 06:00N 36°46' W 076°18'0 0.0
2018-Feb-14 05:30N 36°46' W 076°18'0 0.0
2018-Feb-14 05:00N 36°46' W 076°18'0 0.0
2018-Feb-14 04:30N 36°46' W 076°18'0 0.0
2018-Feb-14 04:00N 36°46' W 076°18'0 0.0
2018-Feb-14 03:30N 36°46' W 076°18'0 0.0
2018-Feb-14 03:00N 36°46' W 076°18'0 0.0
2018-Feb-14 02:30N 36°46' W 076°18'0 0.0
2018-Feb-14 02:00N 36°46' W 076°18'0 0.0
2018-Feb-14 01:30N 36°46' W 076°18'0 0.0
2018-Feb-14 01:00N 36°46' W 076°18'0 0.0
2018-Feb-14 00:30N 36°46' W 076°18'0 0.0
2018-Feb-14 00:00N 36°46' W 076°18'0 0.0
2018-Feb-13 23:30N 36°46' W 076°18'0 0.0
2018-Feb-13 23:00N 36°46' W 076°18'0 0.0
2018-Feb-13 22:30N 36°46' W 076°18'0 0.0
2018-Feb-13 22:00N 36°46' W 076°18'0 0.0
2018-Feb-13 21:30N 36°46' W 076°18'0 0.0
2018-Feb-13 21:00N 36°46' W 076°18'0 0.0
2018-Feb-13 20:30N 36°46' W 076°18'0 0.0
2018-Feb-13 20:00N 36°46' W 076°18'0 0.0
2018-Feb-13 19:30N 36°46' W 076°18'0 0.0
2018-Feb-13 19:00N 36°46' W 076°18'0 0.0
2018-Feb-13 18:30N 36°46' W 076°18'0 0.0
2018-Feb-13 18:00N 36°46' W 076°18'0 0.0
2018-Feb-13 17:30N 36°46' W 076°18'0 0.0
2018-Feb-13 17:00N 36°46' W 076°18'0 0.0
2018-Feb-13 16:30N 36°46' W 076°18'0 0.0
2018-Feb-13 16:00N 36°46' W 076°18'0 0.0
2018-Feb-13 15:30N 36°46' W 076°18'0 0.0
2018-Feb-13 15:00N 36°46' W 076°18'0 0.0
2018-Feb-13 14:30N 36°46' W 076°18'0 0.0
2018-Feb-13 14:00N 36°46' W 076°18'0 0.0
2018-Feb-13 13:30N 36°46' W 076°18'0 0.0
2018-Feb-13 13:00N 36°46' W 076°18'0 0.0
2018-Feb-13 12:30N 36°46' W 076°18'0 0.0
2018-Feb-13 12:00N 36°46' W 076°18'0 0.0
2018-Feb-13 11:30N 36°46' W 076°18'0 0.0
2018-Feb-13 11:00N 36°46' W 076°18'0 0.0
2018-Feb-13 10:30N 36°46' W 076°18'0 0.0
2018-Feb-13 10:00N 36°46' W 076°18'0 0.0
2018-Feb-13 09:30N 36°46' W 076°18'0 0.0
2018-Feb-13 09:00N 36°46' W 076°18'0 0.0
2018-Feb-13 08:30N 36°46' W 076°18'0 0.0
2018-Feb-13 08:00N 36°46' W 076°18'0 0.0
2018-Feb-13 07:30N 36°46' W 076°18'0 0.0
2018-Feb-13 07:00N 36°46' W 076°18'0 0.0
2018-Feb-13 06:30N 36°46' W 076°18'0 0.0
2018-Feb-13 06:00N 36°46' W 076°18'0 0.0
2018-Feb-13 05:30N 36°46' W 076°18'0 0.0
2018-Feb-13 05:00N 36°46' W 076°18'0 0.0
2018-Feb-13 04:30N 36°46' W 076°18'0 0.0
2018-Feb-13 04:00N 36°46' W 076°18'0 0.0
2018-Feb-13 03:30N 36°46' W 076°18'0 0.0
2018-Feb-13 03:00N 36°46' W 076°18'0 0.0
2018-Feb-13 02:30N 36°46' W 076°18'0 0.0
2018-Feb-13 02:00N 36°46' W 076°18'0 0.0
2018-Feb-13 01:30N 36°46' W 076°18'0 0.0
2018-Feb-13 01:00N 36°46' W 076°18'0 0.0
2018-Feb-13 00:30N 36°46' W 076°18'0 0.0
2018-Feb-13 00:00N 36°46' W 076°18'0 0.0
2018-Feb-12 23:30N 36°46' W 076°18'0 0.0
2018-Feb-12 23:00N 36°46' W 076°18'0 0.0
2018-Feb-12 22:30N 36°46' W 076°18'0 0.0
2018-Feb-12 22:00N 36°46' W 076°18'0 0.0
2018-Feb-12 21:30N 36°46' W 076°18'0 0.0
2018-Feb-12 21:00N 36°46' W 076°18'0 0.0
2018-Feb-12 20:30N 36°46' W 076°18'0 0.0
2018-Feb-12 20:00N 36°46' W 076°18'0 0.0
2018-Feb-12 19:30N 36°46' W 076°18'0 0.0
2018-Feb-12 19:00N 36°46' W 076°18'0 0.0
2018-Feb-12 18:30N 36°46' W 076°18'0 0.0
2018-Feb-12 18:00N 36°46' W 076°18'0 0.0
2018-Feb-12 17:30N 36°46' W 076°18'0 0.0
2018-Feb-12 17:00N 36°46' W 076°18'0 0.0
2018-Feb-12 16:30N 36°46' W 076°18'0 0.0
2018-Feb-12 16:00N 36°46' W 076°18'0 0.0
2018-Feb-12 15:30N 36°46' W 076°18'0 0.0
2018-Feb-12 15:00N 36°46' W 076°18'0 0.0
2018-Feb-12 14:30N 36°46' W 076°18'0 0.0
2018-Feb-12 14:00N 36°46' W 076°18'0 0.0
2018-Feb-12 13:30N 36°46' W 076°18'0 0.0
2018-Feb-12 13:00N 36°46' W 076°18'0 0.0
2018-Feb-12 12:30N 36°46' W 076°18'0 0.0
2018-Feb-12 12:00N 36°46' W 076°18'0 0.0
2018-Feb-12 11:30N 36°46' W 076°18'0 0.0
2018-Feb-12 11:00N 36°46' W 076°18'0 0.0
2018-Feb-12 10:30N 36°46' W 076°18'0 0.0
2018-Feb-12 10:00N 36°46' W 076°18'0 0.0
2018-Feb-12 09:30N 36°46' W 076°18'0 0.0
2018-Feb-12 09:00N 36°46' W 076°18'0 0.0
2018-Feb-12 08:30N 36°46' W 076°18'0 0.0
2018-Feb-12 08:00N 36°46' W 076°18'0 0.0
2018-Feb-12 07:30N 36°46' W 076°18'0 0.0
2018-Feb-12 07:00N 36°46' W 076°18'0 0.0
2018-Feb-12 06:30N 36°46' W 076°18'0 0.0
2018-Feb-12 06:00N 36°46' W 076°18'0 0.0
2018-Feb-12 05:30N 36°46' W 076°18'0 0.0
2018-Feb-12 05:00N 36°46' W 076°18'0 0.0
2018-Feb-12 04:30N 36°46' W 076°18'0 0.0
2018-Feb-12 04:00N 36°46' W 076°18'0 0.0
2018-Feb-12 03:30N 36°46' W 076°18'0 0.0
2018-Feb-12 03:00N 36°46' W 076°18'0 0.0
2018-Feb-12 02:30N 36°46' W 076°18'0 0.0
2018-Feb-12 02:00N 36°46' W 076°18'0 0.0
2018-Feb-12 01:30N 36°46' W 076°18'0 0.0
2018-Feb-12 01:00N 36°46' W 076°18'0 0.0
2018-Feb-12 00:30N 36°46' W 076°18'0 0.0
2018-Feb-12 00:00N 36°46' W 076°18'0 0.0
2018-Feb-11 23:30N 36°46' W 076°18'0 0.0
2018-Feb-11 23:00N 36°46' W 076°18'0 0.0
2018-Feb-11 22:30N 36°46' W 076°18'0 0.0
2018-Feb-11 22:00N 36°46' W 076°18'0 0.0
2018-Feb-11 21:30N 36°46' W 076°18'0 0.0
2018-Feb-11 21:00N 36°46' W 076°18'0 0.0
2018-Feb-11 20:30N 36°46' W 076°18'0 0.0
2018-Feb-11 20:00N 36°46' W 076°18'0 0.0
2018-Feb-11 19:30N 36°46' W 076°18'0 0.0
2018-Feb-11 19:00N 36°46' W 076°18'0 0.0
2018-Feb-11 18:30N 36°46' W 076°18'0 0.0
2018-Feb-11 18:00N 36°46' W 076°18'0 0.0
2018-Feb-11 17:30N 36°46' W 076°18'0 0.0
2018-Feb-11 17:00N 36°46' W 076°18'0 0.0
2018-Feb-11 16:30N 36°46' W 076°18'0 0.0
2018-Feb-11 16:00N 36°46' W 076°18'0 0.0
2018-Feb-11 15:30N 36°46' W 076°18'0 0.0
2018-Feb-11 15:00N 36°46' W 076°18'0 0.0
2018-Feb-11 14:30N 36°46' W 076°18'0 0.0
2018-Feb-11 14:00N 36°46' W 076°18'0 0.0
2018-Feb-11 13:30N 36°46' W 076°18'0 0.0
2018-Feb-11 13:00N 36°46' W 076°18'0 0.0
2018-Feb-11 12:30N 36°46' W 076°18'0 0.0
2018-Feb-11 12:00N 36°46' W 076°18'0 0.0
2018-Feb-11 11:30N 36°46' W 076°18'0 0.0
2018-Feb-11 11:00N 36°46' W 076°18'0 0.0
2018-Feb-11 10:30N 36°46' W 076°18'0 0.0
2018-Feb-11 10:00N 36°46' W 076°18'0 0.0
2018-Feb-11 09:30N 36°46' W 076°18'0 0.0
2018-Feb-11 09:00N 36°46' W 076°18'0 0.0
2018-Feb-11 08:30N 36°46' W 076°18'0 0.0
2018-Feb-11 08:00N 36°46' W 076°18'0 0.0
2018-Feb-11 07:30N 36°46' W 076°18'0 0.0
2018-Feb-11 07:00N 36°46' W 076°18'0 0.0
2018-Feb-11 06:30N 36°46' W 076°18'0 0.0
2018-Feb-11 06:00N 36°46' W 076°18'0 0.0
2018-Feb-11 05:30N 36°46' W 076°18'0 0.0
2018-Feb-11 05:00N 36°46' W 076°18'0 0.0
2018-Feb-11 04:30N 36°46' W 076°18'0 0.0
2018-Feb-11 04:00N 36°46' W 076°18'0 0.0
2018-Feb-11 03:30N 36°46' W 076°18'0 0.0
2018-Feb-11 03:00N 36°46' W 076°18'0 0.0
2018-Feb-11 02:30N 36°46' W 076°18'0 0.0
2018-Feb-11 02:00N 36°46' W 076°18'0 0.0
2018-Feb-11 01:30N 36°46' W 076°18'0 0.0
2018-Feb-11 01:00N 36°46' W 076°18'0 0.0
2018-Feb-11 00:30N 36°46' W 076°18'0 0.0
2018-Feb-11 00:00N 36°46' W 076°18'0 0.0
2018-Feb-10 23:30N 36°46' W 076°18'0 0.0
2018-Feb-10 23:00N 36°46' W 076°18'0 0.0
2018-Feb-10 22:30N 36°46' W 076°18'0 0.0
2018-Feb-10 22:00N 36°46' W 076°18'0 0.0
2018-Feb-10 21:30N 36°46' W 076°18'0 0.0
2018-Feb-10 21:00N 36°46' W 076°18'0 0.0
2018-Feb-10 20:30N 36°46' W 076°18'0 0.0
2018-Feb-10 20:00N 36°46' W 076°18'0 0.0
2018-Feb-10 19:30N 36°46' W 076°18'0 0.0
2018-Feb-10 19:00N 36°46' W 076°18'0 0.0
2018-Feb-10 18:30N 36°46' W 076°18'0 0.0
2018-Feb-10 18:00N 36°46' W 076°18'0 0.0
2018-Feb-10 17:30N 36°46' W 076°18'0 0.0
2018-Feb-10 17:00N 36°46' W 076°18'0 0.0
2018-Feb-10 16:30N 36°46' W 076°18'0 0.0
2018-Feb-10 16:00N 36°46' W 076°18'0 0.0
2018-Feb-10 15:30N 36°46' W 076°18'0 0.0
2018-Feb-10 15:00N 36°46' W 076°18'  

Dump ship's entire track history